Tiempo atmosférico en la estación meteorológica de Ciudad Real, Ciudad Real (628 m.)



Fecha
DESCASC
Temp. máxima en grados centígrados (hora)
DESCASC
Temp. mínima en grados centígrados (hora)
DESCASC
Temp. media en grados centígrados
DESCASC
Racha de viento máxima en m/sg (hora)
DESCASC
Velocidad máxima media en intervalos de 10 minutos(hora)
DESCASC
Precipitaciones diarias en mm
DESCASC
Precipitaciones de 00:00 a 06:00 en mm
DESCASC
Precipitaciones de 06:00 a 12:00 en mm
DESCASC
Precipitaciones de 12:00 a 18:00 en mm
DESCASC
Precipitaciones de 18:00 a 24:00 en mm
DESCASC
18-10-2018 20.4 (14:20) 12.3 (09:30) 16.3 12.5 (14:50) 6.67 (14:50) 4.2 0.2 0 4 0
17-10-2018 23.1 (15:50) 9.1 (08:40) 16.1 5 (17:30) 2.5 (17:40) 0 0 0 0 0
16-10-2018 20.7 (15:40) 10.5 (08:00) 15.6 6.39 (12:10) 3.61 (12:10) 0 0 0 0 0
15-10-2018 16.3 (14:40) 8.4 (08:40) 12.3 7.78 (17:00) 3.61 (17:00) 8.4 0 0 2.4 6
14-10-2018 19.2 (05:00) 12.2 (00:00) 15.7 13.06 (15:20) 6.39 (15:10) 6.8 0 6.8 0 0
13-10-2018 28.3 (16:10) 13.5 (00:00) 20.9 5.56 (16:50) 3.06 (17:00) 0 0 0 0 0
12-10-2018 24.8 (16:30) 16.2 (00:00) 20.5 4.17 (02:10) 1.94 (04:10) 0 0 0 0 0
11-10-2018 23.6 (14:00) 14.7 (03:20) 19.2 9.72 (15:40) 4.72 (15:30) 0 0 0 0 0
10-10-2018 23.4 (15:50) 12.9 (00:00) 18.1 8.33 (17:00) 4.72 (02:00) 9.2 8.8 0.4 0 0
09-10-2018 22.4 (15:50) 8.7 (08:10) 15.5 6.39 (10:00) 3.61 (10:00) 0 0 0 0 0
08-10-2018 21.4 (15:40) 7.8 (08:00) 14.6 8.61 (13:20) 3.33 (11:10) 0 0 0 0 0
07-10-2018 22.8 (15:50) 12.2 (09:00) 17.5 8.89 (11:20) 5 (11:00) 0 0 0 0 0
06-10-2018 29.3 (15:20) 12.4 (08:30) 20.8 7.5 (18:10) 3.33 (18:10) 0 0 0 0 0
05-10-2018 29.9 (15:00) 10.9 (08:30) 20.4 5.83 (17:20) 2.78 (23:00) 0 0 0 0 0
04-10-2018 29.8 (15:20) 10.5 (00:00) 20.1 6.11 (16:00) 2.5 (17:10) 0 0 0 0 0
03-10-2018 28.6 (16:20) 8.9 (00:00) 18.8 4.17 (18:10) 2.78 (11:50) 0 0 0 0 0
02-10-2018 24.3 (15:50) 10.4 (00:00) 17.3 6.67 (16:40) 3.33 (03:10) 0 0 0 0 0
01-10-2018 28.6 (15:30) 15.2 (00:00) 21.9 7.78 (19:30) 3.33 (18:50) 0 0 0 0 0
30-09-2018 31 (15:30) 11 (00:00) 21 5.28 (16:10) 2.5 (21:00) 0 0 0 0 0
29-09-2018 29.2 (15:20) 11.7 (00:00) 20.5 5.28 (16:30) 2.78 (09:50) 0 0 0 0 0
28-09-2018 27.8 (16:20) 13.2 (00:00) 20.5 6.67 (16:10) 3.33 (13:20) 0 0 0 0 0
27-09-2018 28 (16:00) 16.1 (00:00) 22.1 8.61 (17:00) 4.44 (17:00) 0 0 0 0 0
26-09-2018 29.4 (15:50) 17.4 (00:00) 23.4 11.39 (16:20) 6.94 (16:40) 0 0 0 0 0
25-09-2018 33.5 (16:20) 17.6 (00:00) 25.6 7.78 (22:20) 4.17 (22:40) 0 0 0 0 0
24-09-2018 33.8 (16:20) 17.3 (00:00) 25.5 6.39 (13:40) 3.89 (11:00) 0 0 0 0 0
23-09-2018 34.6 (16:00) 17.8 (08:30) 26.2 5.83 (16:30) 2.5 (15:40) 0 0 0 0 0
22-09-2018 33.8 (16:10) 17.9 (08:20) 25.8 5.28 (17:40) 2.22 (17:10) 0 0 0 0 0
21-09-2018 33.4 (15:10) 17.5 (08:30) 25.5 5 (13:40) 2.78 (15:50) 0 0 0 0 0
20-09-2018 32.3 (14:50) 16.3 (08:10) 24.3 6.39 (15:40) 3.33 (17:20) 0 0 0 0 0

Gráficas

Temp. máximas Temp. mínimas Temp. medias Precipitaciones Rachas de viento máximas Velocidades máximas media en intervalos de 10 minutos

Datos horarios

Fecha y hora oficial Temperatura (ºC) Velocidad del viento (km/h) Dirección del viento Racha (km/h) Dirección de racha Precipitación (mm) Presión (hPa) Tendencia (hPa) Humedad (%)
2018-10-19 23:00:00 14.7 8 Este 18 Nordeste 0 943 1.6 90
2018-10-19 22:00:00 14.8 3 Norte 11 Este 0 942.6 1.9 86
2018-10-19 21:00:00 15 6 Este 17 Nordeste 0 942.2 1.7 85
2018-10-19 20:00:00 15.5 6 Este 17 Nordeste 0 941.4 0.9 84
2018-10-19 19:00:00 15.9 6 Nordeste 21 Este 0 940.7 0.2 82
2018-10-19 18:00:00 16.3 14 Nordeste 26 Nordeste 0 940.5 -0.1 80
2018-10-19 17:00:00 16.3 10 Nordeste 27 Este 0 940.5 -0.5 82
2018-10-19 16:00:00 15.8 12 Nordeste 23 Nordeste 0 940.5 -0.8 86
2018-10-19 15:00:00 15.6 10 Nordeste 22 Este 0.2 940.6 -0.3 89
2018-10-19 14:00:00 16.1 10 Nordeste 22 Este 0 941 0.3 79
2018-10-19 13:00:00 15.6 11 Nordeste 26 Este 0 941.3 0.8 79
2018-10-19 12:00:00 14.8 14 Este 24 Este 0 940.9 1.2 81
2018-10-19 11:00:00 13.2 8 Nordeste 17 Nordeste 0 940.7 2.2 89
2018-10-19 10:00:00 12.5 5 Nordeste 15 Este 0 940.5 1.8 92
2018-10-19 09:00:00 12.3 8 Este 15 Nordeste 0 939.7 1.2 92
2018-10-19 08:00:00 12.6 6 Este 17 Nordeste 0.2 938.5 0 93
2018-10-19 07:00:00 12.7 6 Este 10 Este 0 938.7 0.5 92
2018-10-19 06:00:00 12.7 4 Nordeste 12 Sudeste 0 938.5 0.3 90
2018-10-19 05:00:00 12.9 6 Este 10 Este 0 938.5 0.3 90
2018-10-19 04:00:00 12.8 4 Nordeste 10 Nordeste 0 938.2 -0.2 90
2018-10-19 03:00:00 12.9 4 Nordeste 10 Nordeste 0 938.2 -0.8 90
2018-10-19 02:00:00 12.9 5 Nordeste 12 Norte 0 938.2 -0.9 88
2018-10-19 01:00:00 13.3 5 Nordeste 11 Norte 0 938.4 -0.2 81
2018-10-19 00:00:00 13.8 5 Este 9 Este 0 939 1.1 73
2018-10-18 23:00:00 14.3 6 Nordeste 18 Nordeste 0 939.1 1.6 71
2018-10-18 22:00:00 14.5 7 Nordeste 14 Este 0 938.6 1.9 68
2018-10-18 21:00:00 15.3 8 Este 18 Nordeste 0 937.9 2 65
2018-10-18 20:00:00 16 13 Nordeste 40 Este 0 937.5 1.8 62
2018-10-18 19:00:00 17.4 20 Este 41 Nordeste 0 936.7 0.9 57
2018-10-18 18:00:00 18.5 22 Este 41 Nordeste 0 935.9 -0.5 60
2018-10-18 17:00:00 19.8 18 Este 36 Este 0 935.7 -1.3 53
2018-10-18 16:00:00 19.7 16 Este 34 Este 0 935.8 -1.6 52
2018-10-18 15:00:00 16.3 13 Este 45 Este 4 936.4 -1.2 74
2018-10-18 14:00:00 19.5 15 Nordeste 32 Nordeste 0 937 -0.7 55
2018-10-18 13:00:00 17.8 19 Nordeste 32 Nordeste 0 937.4 0 63
2018-10-18 12:00:00 14.8 10 Nordeste 24 Nordeste 0 937.6 0.3 76
2018-10-18 11:00:00 13.1 9 Nordeste 21 Nordeste 0 937.7 0.2 80
2018-10-18 10:00:00 12.4 10 Nordeste 19 Nordeste 0 937.4 -0.3 81
2018-10-18 09:00:00 12.4 9 Nordeste 16 Este 0 937.3 -0.9 80
2018-10-18 08:00:00 13.3 5 Nordeste 15 Noroeste 0 937.5 -0.9 82
2018-10-18 07:00:00 13.9 9 Noroeste 18 Noroeste 0 937.7 -1.1 87
2018-10-18 06:00:00 14.1 4 Noroeste 8 Sudoeste 0 938.2 -1.1 84
2018-10-18 05:00:00 14.2 0 Calma 6 Nordeste 0.2 938.4 -1.6 87
2018-10-18 04:00:00 14.6 2 Norte 6 Norte 0 938.8 -1.6 78
2018-10-18 03:00:00 14.5 2 Sudeste 4 Oeste 0 939.3 -1.7 77
2018-10-18 02:00:00 14.7 2 Sudeste 8 Sur 0 940 -1.5 73
2018-10-18 01:00:00 14.6 5 Sudeste 10 Sudeste 0 940.4 -1.2 75
2018-10-18 00:00:00 15.4 5 Sudeste 10 Este 0 941 -0.7 70
2018-10-17 23:00:00 16.2 2 Oeste 8 Noroeste 0 941.5 0.3 64
2018-10-17 22:00:00 17 3 Noroeste 8 Noroeste 0 941.6 0.6 60
2018-10-17 21:00:00 18.2 3 Noroeste 9 Oeste 0 941.7 0.1 54
2018-10-17 20:00:00 19.5 5 Oeste 12 Sudoeste 0 941.2 -0.9 49
2018-10-17 19:00:00 20.7 5 Sur 12 Sudoeste 0 941 -1.7 47
2018-10-17 18:00:00 21.6 6 Sudoeste 18 Sur 0 941.6 -1.8 43
2018-10-17 17:00:00 22.4 5 Sur 12 Sudoeste 0 942.1 -2.3 41
2018-10-17 16:00:00 23.1 4 Este 11 Oeste 0 942.7 -2.6 41
2018-10-17 15:00:00 22.5 3 Noroeste 10 Noroeste 0 943.4 -2.3 44
2018-10-17 14:00:00 20.7 4 Oeste 8 Sudoeste 0 944.4 -1.7 53
2018-10-17 13:00:00 19.2 3 Sudoeste 8 Oeste 0 945.3 -0.5 60
2018-10-17 12:00:00 17.3 4 Este 7 Este 0 945.7 0 66
2018-10-17 11:00:00 14.1 3 Este 6 Este 0 946.1 0.5 77
2018-10-17 10:00:00 10.4 0 Calma 5 Nordeste 0 945.8 0.3 94
2018-10-17 09:00:00 9.2 4 Este 7 Este 0 945.7 0.4 95
2018-10-17 08:00:00 9.5 2 Nordeste 6 Oeste 0 945.6 0.4 95
2018-10-17 07:00:00 9.5 0 Calma 3 Noroeste 0 945.5 0.1 93
2018-10-17 06:00:00 10.2 0 Calma 6 Noroeste 0 945.3 -0.3 91
2018-10-17 05:00:00 10.8 3 Noroeste 9 Oeste 0 945.2 -0.1 90
2018-10-17 04:00:00 11.1 3 Oeste 8 Noroeste 0 945.4 0.1 90
2018-10-17 03:00:00 11.6 0 Calma 9 Este 0 945.6 0.3 86
2018-10-17 02:00:00 12.2 5 Sur 9 Sur 0 945.3 0.1 86
2018-10-17 01:00:00 12.6 4 Sur 9 Sur 0 945.3 0.6 83
2018-10-17 00:00:00 13.3 5 Noroeste 9 Noroeste 0 945.3 1 80
2018-10-16 23:00:00 14.2 3 Norte 9 Noroeste 0 945.2 1.4 76
2018-10-16 22:00:00 15.3 5 Norte 10 Noroeste 0 944.7 1.4 68
2018-10-16 21:00:00 15.8 4 Noroeste 7 Norte 0 944.3 1.2 69
2018-10-16 20:00:00 17.3 4 Norte 8 Nordeste 0 943.8 0.9 60
2018-10-16 19:00:00 18.8 6 Nordeste 19 Nordeste 0 943.3 0.4 53
2018-10-16 18:00:00 19.6 6 Nordeste 20 Nordeste 0 943.1 0.4 49
2018-10-16 17:00:00 20.2 9 Este 19 Nordeste 0 942.9 0.1 52
2018-10-16 16:00:00 20.1 6 Nordeste 21 Nordeste 0 942.9 -0.2 51
2018-10-16 15:00:00 20.1 10 Nordeste 20 Norte 0 942.7 -0.2 51
2018-10-16 14:00:00 18.5 9 Nordeste 20 Norte 0 942.8 -0.1 60
2018-10-16 13:00:00 17.5 8 Nordeste 23 Nordeste 0 943.1 0.9 68
2018-10-16 12:00:00 15.7 10 Este 22 Nordeste 0 942.9 1.4 71
2018-10-16 11:00:00 13.7 6 Nordeste 13 Este 0 942.9 2 87
2018-10-16 10:00:00 11.7 4 Nordeste 10 Nordeste 0 942.2 1.9 95
2018-10-16 09:00:00 10.8 4 Nordeste 10 Nordeste 0 941.5 1.3 96
2018-10-16 08:00:00 10.6 5 Nordeste 11 Este 0 940.9 1.1 96
2018-10-16 07:00:00 10.9 7 Este 12 Este 0 940.3 0.5 96
2018-10-16 06:00:00 11.1 5 Nordeste 11 Nordeste 0 940.2 0.3 96
2018-10-16 05:00:00 11.4 3 Nordeste 9 Nordeste 0 939.8 0 95
2018-10-16 04:00:00 11.6 5 Este 15 Este 0 939.8 -0.1 95
2018-10-16 03:00:00 11.6 9 Este 14 Este 0 939.9 -0.1 95
2018-10-16 02:00:00 11.7 7 Este 13 Nordeste 0 939.8 0.1 96
2018-10-16 01:00:00 11.8 7 Nordeste 12 Nordeste 0 939.9 0.5 96
2018-10-16 00:00:00 11.8 6 Nordeste 11 Nordeste 0.4 940 0.7 95
2018-10-15 23:00:00 11.8 5 Este 12 Este 0.2 939.7 0.2 95
2018-10-15 22:00:00 11.9 6 Este 9 Este 0.6 939.4 0.3 94
2018-10-15 21:00:00 12.2 2 Este 9 Sudoeste 3 939.3 -0.2 94
2018-10-15 20:00:00 12.2 2 Sur 12 Sur 0.2 939.5 -0.5 91
2018-10-15 19:00:00 12.3 7 Sudeste 19 Sudoeste 1.6 939.1 -0.1 92
2018-10-15 18:00:00 12.6 8 Sudoeste 21 Sudoeste 2.2 939.5 0.1 89
2018-10-15 17:00:00 14.2 13 Oeste 28 Sudoeste 0.2 940 0.2 78
2018-10-15 16:00:00 15.8 7 Sudoeste 19 Sudoeste 0 939.2 -1.4 58
2018-10-15 15:00:00 16.2 11 Sudoeste 22 Sudoeste 0 939.4 -1.6 52
2018-10-15 14:00:00 15.8 8 Sur 21 Oeste 0 939.8 -1 55
2018-10-15 13:00:00 13.7 7 Sudoeste 25 Sudoeste 0 940.6 -0.3 63
2018-10-15 12:00:00 12.3 9 Sudoeste 23 Oeste 0 941 0.5 69
2018-10-15 11:00:00 11.1 11 Sudoeste 27 Sudoeste 0 940.8 0.8 74
2018-10-15 10:00:00 9.7 7 Oeste 17 Oeste 0 940.9 0.9 84
2018-10-15 09:00:00 8.6 7 Sudoeste 16 Oeste 0 940.5 0.8 89
2018-10-15 08:00:00 8.7 5 Sudoeste 14 Sudoeste 0 940 0.3 90
2018-10-15 07:00:00 8.9 8 Oeste 17 Oeste 0 940 0 89
2018-10-15 06:00:00 9 8 Oeste 23 Oeste 0 939.7 -0.5 86
2018-10-15 05:00:00 9.6 8 Oeste 18 Sudoeste 0 939.7 -0.4 84
2018-10-15 04:00:00 10.1 7 Sudoeste 16 Sudoeste 0 940 -0.4 82
2018-10-15 03:00:00 10.7 4 Sur 15 Oeste 0 940.2 0 79
2018-10-15 02:00:00 11.2 5 Oeste 15 Sudoeste 0 940.1 0.1 74
2018-10-15 01:00:00 11.9 7 Oeste 17 Noroeste 0 940.4 0.7 68
2018-10-15 00:00:00 12.2 6 Oeste 16 Sudoeste 0 940.2 0.7 65
2018-10-14 23:00:00 12.6 6 Oeste 18 Noroeste 0 940 1 63
2018-10-14 22:00:00 13.4 7 Noroeste 20 Noroeste 0 939.7 1.2 59
2018-10-14 21:00:00 14.1 8 Oeste 20 Noroeste 0 939.5 1.5 55
2018-10-14 20:00:00 14.7 8 Oeste 32 Noroeste 0 939 1.1 52
2018-10-14 19:00:00 15.3 15 Oeste 36 Oeste 0 938.5 0.1 48
2018-10-14 18:00:00 15.4 15 Oeste 40 Noroeste 0 938 -0.3 49
2018-10-14 17:00:00 15.8 15 Noroeste 39 Oeste 0 937.9 -0.3 46
2018-10-14 16:00:00 16.1 18 Oeste 47 Sudoeste 0 938.4 0 47
2018-10-14 15:00:00 16.9 16 Oeste 42 Oeste 0 938.3 -0.5 49
2018-10-14 14:00:00 15.8 17 Oeste 42 Sudoeste 0 938.2 -0.5 52
2018-10-14 13:00:00 14.6 10 Oeste 35 Oeste 0 938.4 1 69
2018-10-14 12:00:00 14.2 19 Oeste 36 Oeste 0 938.8 2.2 74
2018-10-14 11:00:00 13.4 12 Noroeste 30 Sudoeste 0 938.7 2.7 81
2018-10-14 10:00:00 13.6 12 Oeste 41 Oeste 1.2 937.4 -0.7 91
2018-10-14 09:00:00 15.4 18 Sudoeste 45 Sur 0 936.6 -0.2 88
2018-10-14 08:00:00 14.9 13 Sur 26 Sudoeste 1.8 936 -1.3 89
2018-10-14 07:00:00 16.5 15 Sudoeste 38 Oeste 3.8 938.1 0.4 85
2018-10-14 06:00:00 18.2 2 Sur 9 Sudeste 0 936.8 -1.3 61
2018-10-14 05:00:00 19.2 7 Noroeste 21 Sur 0 937.3 -1.5 57
2018-10-14 04:00:00 18.4 10 Sur 20 Sur 0 937.7 -1.8 62
2018-10-14 03:00:00 16.6 9 Sudeste 15 Sur 0 938.1 -2.1 71
2018-10-14 02:00:00 16.4 3 Este 6 Sur 0 938.8 -1.9 65
2018-10-14 01:00:00 17.7 4 Sudeste 11 Sur 0 939.5 -1.5 60
2018-10-14 00:00:00 18.6 5 Sudeste 11 Sur 0 940.2 -1.1 55
2018-10-13 23:00:00 20.6 5 Sudeste 12 Sur 0 940.7 -0.7 49
2018-10-13 22:00:00 22.2 5 Sur 15 Sudoeste 0 941 -0.2 42
2018-10-13 21:00:00 23.6 6 Sudoeste 18 Sudoeste 0 941.3 -0.4 37
2018-10-13 20:00:00 25.4 8 Sur 16 Sur 0 941.4 -0.9 35
2018-10-13 19:00:00 26.8 5 Sur 18 Sur 0 941.2 -2.1 35
2018-10-13 18:00:00 27.4 7 Este 19 Este 0 941.7 -2.6 38
2018-10-13 17:00:00 27.9 11 Este 20 Sudeste 0 942.3 -3.2 37
2018-10-13 16:00:00 28.2 4 Sur 12 Sur 0 943.3 -3.3 40
2018-10-13 15:00:00 28.2 7 Sudeste 11 Sudeste 0 944.3 -3.1 40
2018-10-13 14:00:00 26.2 4 Este 14 Nordeste 0 945.5 -2.2 46
2018-10-13 13:00:00 23.5 6 Este 12 Nordeste 0 946.6 -1.1 57
2018-10-13 12:00:00 20.5 6 Este 13 Nordeste 0 947.4 -0.1 68
2018-10-13 11:00:00 17.3 6 Nordeste 13 Nordeste 0 947.7 0.3 80
2018-10-13 10:00:00 14.7 5 Este 9 Este 0 947.7 0.2 94
2018-10-13 09:00:00 13.6 5 Este 7 Este 0 947.5 -0.1 96
2018-10-13 08:00:00 13.7 3 Nordeste 7 Nordeste 0 947.4 -0.6 94
2018-10-13 07:00:00 14.2 3 Norte 6 Noroeste 0 947.5 -1 94
2018-10-13 06:00:00 14.3 4 Noroeste 5 Noroeste 0 947.6 -1.4 94
2018-10-13 05:00:00 14.6 3 Sudeste 4 Sudeste 0 948 -1.4 93
2018-10-13 04:00:00 15 3 Sudeste 5 Sudeste 0 948.5 -1.3 93
2018-10-13 03:00:00 15.3 3 Este 9 Nordeste 0 949 -1 90
2018-10-13 02:00:00 16.1 3 Nordeste 8 Nordeste 0 949.4 -0.8 88
2018-10-13 01:00:00 16.9 0 Calma 3 Oeste 0 949.8 -0.3 85
2018-10-13 00:00:00 18 2 Oeste 6 Oeste 0 950 0 83
2018-10-12 23:00:00 18.5 3 Oeste 6 Oeste 0 950.2 0.4 79
2018-10-12 22:00:00 19.3 2 Oeste 6 Noroeste 0 950.1 0.7 75
2018-10-12 21:00:00 20.5 2 Nordeste 8 Norte 0 950 0.4 69
2018-10-12 20:00:00 22.2 4 Norte 8 Norte 0 949.8 0.1 62
2018-10-12 19:00:00 23.6 3 Norte 11 Noroeste 0 949.4 -0.7 57
2018-10-12 18:00:00 24.4 6 Noroeste 11 Noroeste 0 949.6 -0.7 53
2018-10-12 17:00:00 24.7 3 Sudeste 10 Sur 0 949.7 -1.2 53
2018-10-12 16:00:00 24.6 3 Sur 12 Noroeste 0 950.1 -1.2 54
2018-10-12 15:00:00 24.3 4 Noroeste 11 Noroeste 0 950.3 -0.9 56
2018-10-12 14:00:00 23.4 3 Este 14 Noroeste 0 950.9 -0.2 59
2018-10-12 13:00:00 22.5 3 Norte 13 Este 0 951.3 1 62
2018-10-12 12:00:00 22.4 4 Sur 12 Sudoeste 0 951.2 1.6 63
2018-10-12 11:00:00 20.1 5 Este 11 Este 0 951.1 2.3 72
2018-10-12 10:00:00 16.9 3 Este 5 Este 0 950.3 1.9 88
2018-10-12 09:00:00 16.3 0 Calma 5 Oeste 0 949.6 1.4 86
2018-10-12 08:00:00 17.1 3 Oeste 7 Sudoeste 0 948.8 0.8 82
2018-10-12 07:00:00 17 3 Sur 8 Sudeste 0 948.4 0.5 82
2018-10-12 06:00:00 16.9 5 Sur 10 Sudoeste 0 948.2 0.3 83
2018-10-12 05:00:00 16.7 2 Este 12 Sudoeste 0 948 -0.1 83
2018-10-12 04:00:00 16.6 6 Sur 9 Sur 0 947.9 0 83
2018-10-12 03:00:00 16.8 5 Sur 15 Sudoeste 0 947.9 0.6 81
2018-10-12 02:00:00 17.4 6 Sur 13 Sudoeste 0 948.1 1.1 78
2018-10-12 01:00:00 16.5 3 Oeste 9 Este 0 947.9 1.7 82
2018-10-12 00:00:00 17.8 6 Sur 14 Sur 0 947.3 2 77
2018-10-11 23:00:00 18.3 8 Sur 16 Sudoeste 0 947 2.4 76
2018-10-11 22:00:00 18.7 7 Sur 17 Sudoeste 0 946.2 2.3 74
2018-10-11 21:00:00 19.3 8 Sur 17 Sudoeste 0 945.3 1.7 69
2018-10-11 20:00:00 20.4 10 Sur 21 Sur 0 944.6 1.8 63
2018-10-11 19:00:00 21.5 10 Sudoeste 26 Sur 0 943.9 1.4 60
2018-10-11 18:00:00 21.7 12 Sudoeste 28 Sudoeste 0 943.6 1.8 62
2018-10-11 17:00:00 21.9 10 Sur 32 Sudoeste 0 942.8 0.4 62
2018-10-11 16:00:00 21.8 13 Sudoeste 35 Sudoeste 0 942.5 0 63
2018-10-11 15:00:00 23 13 Sudoeste 27 Oeste 0 941.8 -0.8 56
2018-10-11 14:00:00 23.4 8 Sur 23 Sudoeste 0 942.4 0.2 55
2018-10-11 13:00:00 21.3 9 Sudoeste 22 Sudoeste 0 942.5 1.3 63
2018-10-11 12:00:00 20 8 Sudoeste 19 Sur 0 942.6 2.3 69
2018-10-11 11:00:00 19.1 5 Sudoeste 20 Sur 0 942.2 2.4 75
2018-10-11 10:00:00 17.8 5 Sudeste 13 Sur 0 941.2 1.2 81
2018-10-11 09:00:00 16.4 4 Sudeste 15 Sur 0 940.3 0.8 87
2018-10-11 08:00:00 15.9 7 Sudeste 10 Sur 0 939.8 0.7 89
2018-10-11 07:00:00 16.1 3 Este 9 Sudoeste 0 940 0.6 85
2018-10-11 06:00:00 16 4 Sur 13 Sur 0 939.5 -0.3 84
2018-10-11 05:00:00 15.6 7 Sudeste 13 Sudeste 0 939.1 -0.9 84
2018-10-11 04:00:00 14.9 5 Sur 8 Sur 0 939.4 -0.5 88
2018-10-11 03:00:00 14.8 5 Sudoeste 9 Sudeste 0 939.8 0.5 86
2018-10-11 02:00:00 15.1 5 Sudeste 8 Sudeste 0 940 1.2 85
2018-10-11 01:00:00 15.4 0 Calma 8 Sudoeste 0 939.9 1.7 82
2018-10-11 00:00:00 15.9 0 Calma 8 Sur 0 939.3 1.5 80
2018-10-10 23:00:00 17.2 5 Sur 13 Sur 0 938.8 1.6 72
2018-10-10 22:00:00 18.2 6 Sur 13 Sur 0 938.2 1.4 67
2018-10-10 21:00:00 19 6 Sur 15 Sur 0 937.8 1.4 63
2018-10-10 20:00:00 20.4 8 Sur 17 Sur 0 937.2 1 57
2018-10-10 19:00:00 21.5 9 Sur 23 Sur 0 936.8 0.4 53
2018-10-10 18:00:00 22.3 12 Sudoeste 28 Sudoeste 0 936.4 -0.1 49
2018-10-10 17:00:00 22.7 14 Sudoeste 30 Sudoeste 0 936.2 -0.6 49
2018-10-10 16:00:00 22.8 9 Sudoeste 23 Sur 0 936.4 -0.8 53
2018-10-10 15:00:00 22 5 Oeste 15 Oeste 0 936.5 -1.3 59
2018-10-10 14:00:00 21.2 6 Oeste 12 Sur 0 936.8 -0.9 61
2018-10-10 13:00:00 20.1 4 Este 14 Sur 0 937.2 -0.2 67
2018-10-10 12:00:00 17.4 6 Este 14 Este 0 937.8 1 79
2018-10-10 11:00:00 16.1 8 Este 13 Este 0 937.7 1.1 83
2018-10-10 10:00:00 13.9 6 Nordeste 14 Este 0 937.4 0.9 90
2018-10-10 09:00:00 13.1 5 Nordeste 12 Nordeste 0 936.8 0.1 93
2018-10-10 08:00:00 13.1 5 Nordeste 10 Este 0 936.6 -0.1 93
2018-10-10 07:00:00 12.9 6 Este 15 Este 0.4 936.5 -0.8 90
2018-10-10 06:00:00 13.1 6 Este 11 Este 0 936.7 -0.7 92
2018-10-10 05:00:00 13.2 4 Este 13 Sudeste 0.6 936.7 -0.8 93
2018-10-10 04:00:00 13.5 6 Sudeste 13 Oeste 4.6 937.3 -0.1 91
2018-10-10 03:00:00 14 5 Sudoeste 24 Sur 2.4 937.4 -0.3 90
2018-10-10 02:00:00 14.3 17 Sudeste 25 Sur 1.2 937.5 -0.3 89
2018-10-10 01:00:00 15.1 7 Este 13 Sudeste 0 937.4 -0.7 76
2018-10-10 00:00:00 15.4 9 Sudeste 19 Sudeste 0 937.7 0.4 69
2018-10-09 23:00:00 16.2 12 Este 22 Sudeste 0 937.8 1 63
2018-10-09 22:00:00 16.2 9 Este 18 Este 0 938.1 1.4 59
2018-10-09 21:00:00 17.3 9 Sudeste 21 Sudeste 0 937.3 0.4 56
2018-10-09 20:00:00 19.4 10 Sudeste 23 Nordeste 0 936.8 -0.4 45
2018-10-09 19:00:00 20.4 6 Este 14 Este 0 936.7 -0.8 37
2018-10-09 18:00:00 21.1 5 Nordeste 17 Nordeste 0 936.9 -1.1 32
2018-10-09 17:00:00 21.8 6 Norte 13 Nordeste 0 937.2 -1.9 31
2018-10-09 16:00:00 22.3 5 Nordeste 16 Nordeste 0 937.5 -2.2 32
2018-10-09 15:00:00 21.8 9 Este 23 Este 0 938 -2.5 36
2018-10-09 14:00:00 21.2 9 Este 21 Este 0 939.1 -1.6 42
2018-10-09 13:00:00 18.8 11 Este 19 Nordeste 0 939.7 -0.6 53
2018-10-09 12:00:00 16.6 7 Nordeste 21 Este 0 940.5 0.5 60
2018-10-09 11:00:00 13 11 Este 21 Este 0 940.7 1 73
2018-10-09 10:00:00 11.8 13 Nordeste 23 Nordeste 0 940.3 0.3 78
2018-10-09 09:00:00 8.9 6 Nordeste 11 Nordeste 0 940 -0.2 90
2018-10-09 08:00:00 8.8 5 Nordeste 8 Nordeste 0 939.7 -0.9 89
2018-10-09 07:00:00 9.2 4 Este 12 Nordeste 0 940 -1.1 88
2018-10-09 06:00:00 9.4 5 Nordeste 14 Nordeste 0 940.2 -1.2 85
2018-10-09 05:00:00 10.1 5 Nordeste 14 Nordeste 0 940.6 -1 81
2018-10-09 04:00:00 10.6 7 Este 19 Norte 0 941.1 -1.3 79
2018-10-09 03:00:00 10.8 6 Norte 13 Norte 0 941.4 -1.2 74
2018-10-09 02:00:00 11.6 6 Nordeste 14 Nordeste 0 941.6 -1.1 62
2018-10-09 01:00:00 12.6 4 Nordeste 13 Norte 0 942.4 -0.3 52
2018-10-09 00:00:00 13.6 7 Norte 13 Norte 0 942.6 0 48
2018-10-08 23:00:00 14 3 Nordeste 9 Norte 0 942.7 0.4 47
2018-10-08 22:00:00 14.9 4 Nordeste 13 Norte 0 942.7 0.5 45
2018-10-08 21:00:00 16.5 5 Nordeste 13 Nordeste 0 942.6 0.2 39
2018-10-08 20:00:00 18.3 7 Nordeste 17 Este 0 942.3 -0.6 37
2018-10-08 19:00:00 19.6 10 Nordeste 19 Este 0 942.2 -1 33
2018-10-08 18:00:00 20.3 8 Este 17 Nordeste 0 942.4 -1.2 31
2018-10-08 17:00:00 20.5 5 Norte 19 Nordeste 0 942.9 -1.5 31
2018-10-08 16:00:00 21.2 8 Este 21 Nordeste 0 943.2 -2 31
2018-10-08 15:00:00 20.7 6 Norte 21 Este 0 943.6 -2.1 33
2018-10-08 14:00:00 19.6 9 Nordeste 31 Norte 0 944.4 -1.5 35
2018-10-08 13:00:00 18.5 10 Este 21 Nordeste 0 945.2 -0.4 37
2018-10-08 12:00:00 16.7 8 Este 22 Este 0 945.7 0.5 42
2018-10-08 11:00:00 14.1 9 Nordeste 21 Nordeste 0 945.9 1.1 48
2018-10-08 10:00:00 9.4 3 Este 6 Este 0 945.6 1.1 59
2018-10-08 09:00:00 8 3 Nordeste 6 Sudeste 0 945.2 0.7 57
2018-10-08 08:00:00 7.8 2 Este 5 Este 0 944.8 -0.1 58
2018-10-08 07:00:00 8.3 4 Sudeste 7 Nordeste 0 944.5 -0.8 58
2018-10-08 06:00:00 9.1 3 Norte 9 Nordeste 0 944.5 -1.1 54
2018-10-08 05:00:00 9.3 5 Nordeste 11 Nordeste 0 944.9 -0.9 53
2018-10-08 04:00:00 10.1 5 Nordeste 10 Nordeste 0 945.3 -0.7 50
2018-10-08 03:00:00 10.8 6 Nordeste 10 Nordeste 0 945.6 -0.5 49
2018-10-08 02:00:00 11.3 3 Nordeste 12 Nordeste 0 945.8 0 46
2018-10-08 01:00:00 12.1 6 Nordeste 12 Nordeste 0 946 0.6 42
2018-10-08 00:00:00 13.2 8 Nordeste 13 Nordeste 0 946.1 1.4 40
2018-10-07 23:00:00 13.9 5 Nordeste 10 Nordeste 0 945.8 1.7 42
2018-10-07 22:00:00 15.3 4 Nordeste 12 Norte 0 945.4 1.9 40
2018-10-07 21:00:00 17.2 6 Nordeste 18 Nordeste 0 944.7 1.2 34
2018-10-07 20:00:00 19.4 11 Nordeste 24 Nordeste 0 944.1 0.2 30
2018-10-07 19:00:00 21 9 Nordeste 19 Nordeste 0 943.5 -0.8 30
2018-10-07 18:00:00 21.9 7 Nordeste 18 Nordeste 0 943.5 -1.3 30
2018-10-07 17:00:00 22.3 7 Nordeste 19 Nordeste 0 943.9 -1.7 29
2018-10-07 16:00:00 22.8 9 Nordeste 22 Nordeste 0 944.3 -1.5 28
2018-10-07 15:00:00 22 6 Norte 19 Nordeste 0 944.8 -1.2 31
2018-10-07 14:00:00 21.8 6 Este 25 Este 0 945.6 -0.4 32
2018-10-07 13:00:00 20.3 10 Este 26 Nordeste 0 945.8 0.3 34
2018-10-07 12:00:00 18.7 15 Este 32 Este 0 946 1.1 35
2018-10-07 11:00:00 17.4 18 Este 31 Este 0 946 1.7 42
2018-10-07 10:00:00 14.7 8 Este 14 Sudeste 0 945.5 1.7 53
2018-10-07 09:00:00 12.2 4 Nordeste 12 Nordeste 0 944.9 1.4 56
2018-10-07 08:00:00 13 4 Norte 11 Norte 0 944.3 0.9 54
2018-10-07 07:00:00 14.1 4 Este 7 Nordeste 0 943.8 0 46
2018-10-07 06:00:00 16.2 2 Noroeste 9 Oeste 0 943.5 -0.5 43
2018-10-07 05:00:00 16.8 4 Oeste 10 Oeste 0 943.4 -0.6 41
2018-10-07 04:00:00 17.4 4 Oeste 8 Oeste 0 943.8 -0.3 39
2018-10-07 03:00:00 18.3 3 Noroeste 12 Oeste 0 944 -0.4 36
2018-10-07 02:00:00 19.1 5 Oeste 20 Sudoeste 0 944 -0.4 34
2018-10-07 01:00:00 19.7 7 Sudoeste 14 Sudoeste 0 944.1 -0.2 32
2018-10-07 00:00:00 20.2 6 Sudoeste 12 Oeste 0 944.4 0.5 31
2018-10-06 23:00:00 20.9 4 Oeste 9 Noroeste 0 944.4 1 30
2018-10-06 22:00:00 22.2 4 Oeste 13 Noroeste 0 944.3 1.2 28
2018-10-06 21:00:00 23.5 4 Noroeste 14 Oeste 0 943.9 0.8 25
2018-10-06 20:00:00 25.3 5 Oeste 24 Sudoeste 0 943.4 -0.1 23
2018-10-06 19:00:00 26.6 10 Oeste 27 Oeste 0 943.1 -0.7 22
2018-10-06 18:00:00 27.5 9 Oeste 26 Oeste 0 943.1 -1.3 21
2018-10-06 17:00:00 28.2 11 Oeste 26 Sudoeste 0 943.5 -1.6 20
2018-10-06 16:00:00 29.2 7 Sudoeste 24 Oeste 0 943.8 -1.9 20
2018-10-06 15:00:00 28.9 9 Oeste 21 Sudoeste 0 944.4 -1.8 21
2018-10-06 14:00:00 27.8 10 Noroeste 21 Noroeste 0 945.1 -1.2 23
2018-10-06 13:00:00 26.8 10 Oeste 19 Oeste 0 945.7 -0.4 26
2018-10-06 12:00:00 24.6 6 Oeste 20 Oeste 0 946.2 0.5 31
2018-10-06 11:00:00 20.5 4 Oeste 7 Oeste 0 946.3 1.1 38
2018-10-06 10:00:00 14.4 0 Calma 3 Este 0 946.1 1.4 53
2018-10-06 09:00:00 12.4 0 Calma 6 Norte 0 945.7 1.3 57
2018-10-06 08:00:00 12.8 3 Norte 5 Norte 0 945.2 0.9 50
2018-10-06 07:00:00 13.8 0 Calma 5 Noroeste 0 944.7 0.3 46
2018-10-06 06:00:00 15.8 3 Sudoeste 10 Sudoeste 0 944.4 -0.3 42
2018-10-06 05:00:00 15 4 Sur 9 Sudeste 0 944.3 -0.4 43
2018-10-06 04:00:00 16.1 3 Sudeste 8 Sur 0 944.4 -0.4 42
2018-10-06 03:00:00 18.2 2 Oeste 8 Oeste 0 944.7 -0.3 35
2018-10-06 02:00:00 19.3 4 Oeste 10 Oeste 0 944.7 0.2 33
2018-10-06 01:00:00 20.5 6 Oeste 12 Sudoeste 0 944.8 0.9 31
2018-10-06 00:00:00 19.5 6 Sudoeste 12 Oeste 0 945 1.4 32
2018-10-05 23:00:00 20.7 10 Sudoeste 21 Sudoeste 0 944.5 1.2 29
2018-10-05 22:00:00 20.7 4 Oeste 10 Sudoeste 0 943.9 0.9 33
2018-10-05 21:00:00 22.3 2 Oeste 7 Noroeste 0 943.6 0.5 30
2018-10-05 20:00:00 25 4 Noroeste 10 Noroeste 0 943.3 0 24
2018-10-05 19:00:00 26.7 4 Noroeste 11 Oeste 0 943 -0.7 21
2018-10-05 18:00:00 27.9 4 Noroeste 21 Oeste 0 943.1 -1.1 19
2018-10-05 17:00:00 28.8 5 Noroeste 21 Sudoeste 0 943.3 -1.7 18
2018-10-05 16:00:00 29.1 5 Oeste 18 Oeste 0 943.7 -2 18
2018-10-05 15:00:00 29.8 5 Noroeste 13 Oeste 0 944.2 -2 18
2018-10-05 14:00:00 27.4 4 Noroeste 11 Sudoeste 0 945 -1.5 22
2018-10-05 13:00:00 25.4 4 Oeste 10 Oeste 0 945.7 -0.8 28
2018-10-05 12:00:00 22 4 Oeste 6 Oeste 0 946.2 0 36
2018-10-05 11:00:00 17.7 3 Noroeste 6 Noroeste 0 946.5 0.7 51
2018-10-05 10:00:00 12.9 3 Norte 6 Nordeste 0 946.5 0.9 73
2018-10-05 09:00:00 11.1 0 Calma 3 Este 0 946.2 0.9 68
2018-10-05 08:00:00 11.4 0 Calma 8 Norte 0 945.8 0.5 62
2018-10-05 07:00:00 11.9 2 Norte 3 Noroeste 0 945.6 0.1 55
2018-10-05 06:00:00 12.7 2 Norte 4 Norte 0 945.3 -0.8 52
2018-10-05 05:00:00 13.6 3 Este 6 Sudeste 0 945.3 -1 48
2018-10-05 04:00:00 14.2 0 Calma 6 Oeste 0 945.5 -0.9 48
2018-10-05 03:00:00 15 4 Sudoeste 6 Sudoeste 0 946.1 -0.4 46
2018-10-05 02:00:00 15.8 0 Calma 7 Sudoeste 0 946.3 0.1 42
2018-10-05 01:00:00 16.9 2 Sudoeste 6 Sur 0 946.4 0.6 39
2018-10-05 00:00:00 18.5 2 Sudeste 12 Sudeste 0 946.5 1 33
2018-10-04 23:00:00 20.7 3 Oeste 9 Noroeste 0 946.2 0.9 28
2018-10-04 22:00:00 22.3 3 Oeste 8 Sudoeste 0 945.8 0.6 26
2018-10-04 21:00:00 23.7 4 Oeste 13 Sudoeste 0 945.5 0.3 24
2018-10-04 20:00:00 25.4 3 Sudoeste 10 Oeste 0 945.3 -0.2 24
2018-10-04 19:00:00 27 4 Noroeste 13 Noroeste 0 945.2 -0.8 20
2018-10-04 18:00:00 28.2 7 Sudoeste 17 Oeste 0 945.2 -1.3 19
2018-10-04 17:00:00 29.1 6 Sudoeste 15 Sur 0 945.5 -1.8 19
2018-10-04 16:00:00 29.2 8 Noroeste 22 Oeste 0 946 -2 19
2018-10-04 15:00:00 29.4 8 Oeste 14 Sudoeste 0 946.5 -2.1 19
2018-10-04 14:00:00 27.8 6 Oeste 15 Oeste 0 947.3 -1.3 24
2018-10-04 13:00:00 25.9 5 Sudoeste 14 Oeste 0 948 -0.4 26
2018-10-04 12:00:00 22.7 4 Sudoeste 9 Oeste 0 948.6 0.6 29
2018-10-04 11:00:00 17.9 2 Este 4 Nordeste 0 948.6 0.9 35
2018-10-04 10:00:00 12.7 2 Nordeste 5 Nordeste 0 948.4 0.9 49
2018-10-04 09:00:00 10.5 0 Calma 3 Sudoeste 0 948 0.5 50
2018-10-04 08:00:00 10.7 3 Noroeste 5 Noroeste 0 947.7 0.2 53
2018-10-04 07:00:00 10.7 2 Noroeste 9 Nordeste 0 947.5 -0.5 47
2018-10-04 06:00:00 11.4 4 Nordeste 12 Sudoeste 0 947.5 -0.9 40
2018-10-04 05:00:00 12.1 0 Calma 4 Sudeste 0 947.5 -1.2 41
2018-10-04 04:00:00 12.9 2 Sudeste 6 Sudeste 0 948 -0.8 44
2018-10-04 03:00:00 13.4 2 Noroeste 5 Oeste 0 948.4 -0.5 41
2018-10-04 02:00:00 14.4 3 Noroeste 6 Norte 0 948.7 -0.1 39
2018-10-04 01:00:00 15.4 4 Norte 5 Norte 0 948.8 0.1 35
2018-10-04 00:00:00 16.4 3 Nordeste 9 Este 0 948.9 0.5 31
2018-10-03 23:00:00 17.1 3 Nordeste 6 Norte 0 948.8 0.5 32
2018-10-03 22:00:00 18.8 3 Noroeste 4 Norte 0 948.7 0.5 29
2018-10-03 21:00:00 20.9 0 Calma 6 Norte 0 948.4 0.2 24
2018-10-03 20:00:00 23.8 4 Nordeste 10 Nordeste 0 948.3 -0.1 19
2018-10-03 19:00:00 25.8 3 Norte 15 Noroeste 0 948.2 -0.7 15
2018-10-03 18:00:00 26.9 4 Noroeste 13 Sur 0 948.2 -1.4 15
2018-10-03 17:00:00 27.8 3 Este 12 Sur 0 948.4 -2.1 13
2018-10-03 16:00:00 28.1 5 Nordeste 14 Sudeste 0 948.9 -2.3 12
2018-10-03 15:00:00 27.1 5 Nordeste 14 Este 0 949.6 -1.9 13
2018-10-03 14:00:00 26 6 Este 13 Este 0 950.5 -1.3 17
2018-10-03 13:00:00 23.3 5 Nordeste 13 Este 0 951.2 0 20
2018-10-03 12:00:00 20.3 7 Este 14 Este 0 951.5 0.7 23
2018-10-03 11:00:00 17.2 8 Este 13 Nordeste 0 951.8 1.7 27
2018-10-03 10:00:00 11.5 4 Este 7 Nordeste 0 951.2 1.3 41
2018-10-03 09:00:00 9.3 3 Nordeste 8 Este 0 950.8 1.1 48
2018-10-03 08:00:00 9 0 Calma 7 Nordeste 0 950.1 0.4 44
2018-10-03 07:00:00 9.3 2 Norte 3 Este 0 949.9 0.1 42
2018-10-03 06:00:00 10 0 Calma 5 Sudeste 0 949.7 -0.4 40
2018-10-03 05:00:00 10.7 3 Sur 5 Sur 0 949.7 -0.4 39
2018-10-03 04:00:00 11 2 Sur 6 Sudeste 0 949.8 -0.3 36
2018-10-03 03:00:00 11.6 4 Sudeste 5 Sudeste 0 950.1 -0.1 38
2018-10-03 02:00:00 12.4 0 Calma 2 Norte 0 950.1 0.3 37
2018-10-03 01:00:00 13.2 0 Calma 4 Nordeste 0 950.1 0.5 34
2018-10-03 00:00:00 14.3 0 Calma 5 Oeste 0 950.2 1 33
2018-10-02 23:00:00 15.4 3 Noroeste 7 Norte 0 949.8 1.1 29
2018-10-02 22:00:00 16.8 2 Sudeste 7 Este 0 949.6 1.2 24
2018-10-02 21:00:00 18.9 2 Este 12 Nordeste 0 949.2 0.9 19
2018-10-02 20:00:00 21.2 9 Este 18 Este 0 948.7 0.4 15
2018-10-02 19:00:00 22.5 12 Este 20 Nordeste 0 948.4 -0.3 13
2018-10-02 18:00:00 23.4 9 Nordeste 24 Nordeste 0 948.3 -0.9 15
2018-10-02 17:00:00 23.9 8 Nordeste 24 Nordeste 0 948.3 -1.5 16
2018-10-02 16:00:00 24.1 9 Nordeste 22 Nordeste 0 948.7 -1.3 15
2018-10-02 15:00:00 23.6 9 Nordeste 21 Nordeste 0 949.2 -1.3 16
2018-10-02 14:00:00 22.1 5 Norte 17 Nordeste 0 949.8 -0.5 18
2018-10-02 13:00:00 20.7 9 Este 16 Nordeste 0 950 -0.1 18
2018-10-02 12:00:00 18.3 4 Norte 15 Este 0 950.5 0.9 24
2018-10-02 11:00:00 16.5 7 Sudeste 15 Este 0 950.3 1 27
2018-10-02 10:00:00 12.6 4 Este 12 Este 0 950.1 1.4 35
2018-10-02 09:00:00 11 3 Norte 15 Norte 0 949.6 1.2 36
2018-10-02 08:00:00 10.4 5 Norte 11 Norte 0 949.3 0.9 44
2018-10-02 07:00:00 11 5 Nordeste 10 Nordeste 0 948.7 0.3 46
2018-10-02 06:00:00 11.5 2 Norte 7 Norte 0 948.4 -0.2 44
2018-10-02 05:00:00 12.6 3 Nordeste 8 Norte 0 948.4 -0.1 40
2018-10-02 04:00:00 13.2 4 Nordeste 20 Este 0 948.4 -0.3 36
2018-10-02 03:00:00 13.8 10 Nordeste 18 Este 0 948.6 0.4 34
2018-10-02 02:00:00 14.1 4 Nordeste 14 Nordeste 0 948.5 0.9 31
2018-10-02 01:00:00 14.8 5 Nordeste 11 Nordeste 0 948.7 1.4 31
2018-10-02 00:00:00 16.5 6 Nordeste 10 Este 0 948.2 1.4 27
2018-10-01 23:00:00 17.4 3 Sudeste 15 Nordeste 0 947.6 1.5 26
2018-10-01 22:00:00 19.5 7 Nordeste 18 Nordeste 0 947.3 1.5 23
2018-10-01 21:00:00 21.5 5 Nordeste 20 Norte 0 946.8 1.1 18
2018-10-01 20:00:00 24.2 9 Norte 28 Norte 0 946.1 0.3 15
2018-10-01 19:00:00 26 11 Nordeste 24 Norte 0 945.8 -0.3 18
2018-10-01 18:00:00 27.1 10 Nordeste 28 Nordeste 0 945.7 -1.1 18
2018-10-01 17:00:00 27.7 8 Norte 23 Nordeste 0 945.8 -1.7 17
2018-10-01 16:00:00 28.2 8 Norte 26 Noroeste 0 946.1 -1.7 17
2018-10-01 15:00:00 28.2 7 Nordeste 19 Nordeste 0 946.8 -1.1 23
2018-10-01 14:00:00 27 8 Nordeste 26 Nordeste 0 947.5 0 26
2018-10-01 13:00:00 26.8 9 Nordeste 19 Nordeste 0 947.8 0.6 25
2018-10-01 12:00:00 23.8 7 Nordeste 15 Norte 0 947.9 1.4 33
2018-10-01 11:00:00 21.4 4 Este 9 Este 0 947.5 1.6 41
2018-10-01 10:00:00 16.7 3 Nordeste 6 Nordeste 0 947.2 1.8 59
2018-10-01 09:00:00 15.8 2 Este 5 Noroeste 0 946.5 1.3 63
2018-10-01 08:00:00 15.8 0 Calma 4 Sudeste 0 945.9 0.8 58
2018-10-01 07:00:00 17.6 0 Calma 9 Sudoeste 0 945.4 -0.2 51
2018-10-01 06:00:00 18.3 6 Oeste 12 Noroeste 0 945.2 -0.7 49
2018-10-01 05:00:00 18.8 5 Oeste 10 Oeste 0 945.1 -0.9 46
2018-10-01 04:00:00 19.4 3 Oeste 10 Sudoeste 0 945.6 -0.4 47
2018-10-01 03:00:00 20 5 Oeste 11 Oeste 0 945.9 -0.1 48
2018-10-01 02:00:00 20.7 3 Noroeste 9 Sudoeste 0 946 0.1 46
2018-10-01 01:00:00 21.2 4 Oeste 10 Oeste 0 946 0.5 47
2018-10-01 00:00:00 22.2 7 Oeste 15 Sudoeste 0 946 0.9 46
2018-09-30 23:00:00 23 7 Sudoeste 13 Sudoeste 0 945.9 1.4 44
2018-09-30 22:00:00 24 6 Sudoeste 15 Sudoeste 0 945.5 1.1 41
2018-09-30 21:00:00 25.3 9 Sudoeste 18 Oeste 0 945.1 0.8 34
2018-09-30 20:00:00 26.7 5 Noroeste 13 Noroeste 0 944.5 -0.2 25
2018-09-30 19:00:00 27.9 4 Sudoeste 17 Noroeste 0 944.4 -0.5 22
2018-09-30 18:00:00 28.2 3 Oeste 10 Noroeste 0 944.3 -1.1 22
2018-09-30 17:00:00 29 8 Noroeste 19 Noroeste 0 944.7 -1.2 21
2018-09-30 16:00:00 30.7 4 Sudoeste 19 Sudoeste 0 944.9 -1.5 19
2018-09-30 15:00:00 30.4 5 Nordeste 16 Noroeste 0 945.4 -1.5 21
2018-09-30 14:00:00 29.4 4 Oeste 12 Oeste 0 945.9 -1.2 23
2018-09-30 13:00:00 26.6 3 Sudoeste 7 Noroeste 0 946.4 -0.3 31
2018-09-30 12:00:00 22.8 2 Oeste 5 Oeste 0 946.9 0.7 34
2018-09-30 11:00:00 18.8 3 Sudeste 5 Este 0 947.1 1.4 39
2018-09-30 10:00:00 13.4 2 Nordeste 6 Norte 0 946.7 1.5 54
2018-09-30 09:00:00 11.5 3 Norte 6 Nordeste 0 946.2 1.4 54
2018-09-30 08:00:00 11.5 2 Norte 8 Nordeste 0 945.7 1 55
2018-09-30 07:00:00 12.2 4 Nordeste 9 Nordeste 0 945.2 0.4 52
2018-09-30 06:00:00 12.8 0 Calma 3 Este 0 944.8 0.1 48
2018-09-30 05:00:00 14.3 0 Calma 8 Sur 0 944.7 0 45
2018-09-30 04:00:00 14.5 4 Sur 7 Sur 0 944.8 0 43
2018-09-30 03:00:00 14.9 2 Nordeste 4 Nordeste 0 944.7 0.2 42
2018-09-30 02:00:00 15.9 2 Norte 9 Oeste 0 944.7 0.2 40
2018-09-30 01:00:00 16.9 5 Sudoeste 11 Sur 0 944.8 0.7 36
2018-09-30 00:00:00 17.5 2 Norte 6 Sudeste 0 944.5 0.8 34
2018-09-29 23:00:00 18.3 4 Sur 5 Sur 0 944.5 1.2 33
2018-09-29 22:00:00 19.9 0 Calma 5 Sudoeste 0 944.1 0.9 30
2018-09-29 21:00:00 21.9 3 Sudoeste 5 Sudoeste 0 943.7 0.5 29
2018-09-29 20:00:00 24.3 3 Sur 8 Nordeste 0 943.3 -0.2 21
2018-09-29 19:00:00 26.5 4 Sudeste 14 Nordeste 0 943.2 -0.7 18
2018-09-29 18:00:00 27.7 8 Sudeste 15 Sudeste 0 943.2 -1.3 16
2018-09-29 17:00:00 28.4 8 Este 19 Este 0 943.5 -1.8 18
2018-09-29 16:00:00 28.7 8 Norte 17 Este 0 943.9 -2 20
2018-09-29 15:00:00 28.7 5 Sudeste 17 Este 0 944.5 -1.8 15
2018-09-29 14:00:00 27.3 5 Este 14 Este 0 945.3 -1.4 22
2018-09-29 13:00:00 24.5 5 Este 17 Este 0 945.9 -0.6 33
2018-09-29 12:00:00 21.7 4 Este 10 Nordeste 0 946.3 0 41
2018-09-29 11:00:00 18.2 5 Nordeste 12 Nordeste 0 946.7 0.7 50
2018-09-29 10:00:00 14.4 9 Nordeste 14 Nordeste 0 946.5 0.8 62
2018-09-29 09:00:00 11.9 6 Nordeste 8 Este 0 946.3 0.7 67
2018-09-29 08:00:00 11.9 4 Este 9 Este 0 946 0.3 67
2018-09-29 07:00:00 12.4 7 Este 11 Este 0 945.7 -0.1 63
2018-09-29 06:00:00 12.4 3 Este 5 Nordeste 0 945.6 -0.6 61
2018-09-29 05:00:00 13.1 0 Calma 4 Nordeste 0 945.7 -0.5 59
2018-09-29 04:00:00 13.9 2 Este 8 Nordeste 0 945.8 -0.5 55
2018-09-29 03:00:00 15.1 4 Nordeste 13 Nordeste 0 946.2 -0.2 48
2018-09-29 02:00:00 15.7 7 Nordeste 12 Nordeste 0 946.2 -0.2 45
2018-09-29 01:00:00 16.2 3 Nordeste 7 Nordeste 0 946.3 0.1 45
2018-09-29 00:00:00 17.7 0 Calma 5 Nordeste 0 946.4 0.5 44
2018-09-28 23:00:00 19.8 2 Nordeste 13 Este 0 946.4 0.6 37
2018-09-28 22:00:00 21.9 10 Este 17 Este 0 946.2 0.4 31
2018-09-28 21:00:00 23.2 8 Este 13 Este 0 945.9 -0.2 31
2018-09-28 20:00:00 24.6 7 Este 15 Este 0 945.8 -0.7 32
2018-09-28 19:00:00 25.7 8 Nordeste 20 Nordeste 0 945.8 -1.3 32
2018-09-28 18:00:00 26.4 9 Nordeste 21 Nordeste 0 946.1 -1.7 32
2018-09-28 17:00:00 26.9 9 Este 24 Este 0 946.5 -2.2 31
2018-09-28 16:00:00 27.5 7 Este 19 Nordeste 0 947.1 -2.4 32
2018-09-28 15:00:00 26.9 6 Este 21 Este 0 947.8 -2.3 35
2018-09-28 14:00:00 25.6 8 Norte 21 Nordeste 0 948.7 -1.7 38
2018-09-28 13:00:00 24.7 9 Este 19 Este 0 949.5 -0.7 41
2018-09-28 12:00:00 22.1 6 Este 16 Nordeste 0 950.1 0.2 54
2018-09-28 11:00:00 18.9 4 Nordeste 12 Este 0 950.4 0.6 65
2018-09-28 10:00:00 15.3 8 Este 14 Este 0 950.2 0.5 81
2018-09-28 09:00:00 13.5 6 Este 10 Sudeste 0 949.9 0.1 87
2018-09-28 08:00:00 13.3 3 Este 8 Nordeste 0 949.8 -0.1 84
2018-09-28 07:00:00 13.8 6 Este 12 Este 0 949.7 -0.7 80
2018-09-28 06:00:00 14.3 7 Nordeste 13 Nordeste 0 949.8 -1.1 77
2018-09-28 05:00:00 14.9 4 Norte 9 Nordeste 0 949.9 -1.3 72
2018-09-28 04:00:00 15.6 4 Este 8 Este 0 950.4 -1.2 67
2018-09-28 03:00:00 16.1 4 Nordeste 8 Nordeste 0 950.9 -0.8 65
2018-09-28 02:00:00 16.8 6 Nordeste 9 Nordeste 0 951.2 -0.8 62
2018-09-28 01:00:00 17.8 3 Norte 13 Este 0 951.6 -0.2 59
2018-09-28 00:00:00 18.6 7 Este 10 Este 0 951.7 0 57
2018-09-27 23:00:00 19.3 6 Nordeste 11 Nordeste 0 952 0.3 55
2018-09-27 22:00:00 20.2 6 Nordeste 13 Nordeste 0 951.8 0.1 53
2018-09-27 21:00:00 22 7 Nordeste 17 Nordeste 0 951.7 -0.4 48
2018-09-27 20:00:00 24.1 9 Nordeste 27 Nordeste 0 951.7 -0.6 41
2018-09-27 19:00:00 25.3 15 Este 28 Este 0 951.7 -0.9 37
2018-09-27 18:00:00 26.4 14 Este 30 Este 0 952.1 -1.3 35
2018-09-27 17:00:00 27.1 16 Este 31 Este 0 952.3 -2.2 35
2018-09-27 16:00:00 27.9 10 Nordeste 27 Nordeste 0 952.6 -2.5 36
2018-09-27 15:00:00 27.3 12 Nordeste 26 Este 0 953.4 -2.4 40
2018-09-27 14:00:00 26.3 13 Nordeste 30 Este 0 954.5 -1.6 47
2018-09-27 13:00:00 25.1 13 Este 29 Nordeste 0 955.1 -0.9 52
2018-09-27 12:00:00 23.1 14 Nordeste 25 Este 0 955.8 0.1 59
2018-09-27 11:00:00 19.8 13 Este 25 Nordeste 0 956.1 0.7 72
2018-09-27 10:00:00 16.8 9 Nordeste 20 Nordeste 0 956 0.7 83
2018-09-27 09:00:00 16.1 9 Nordeste 19 Nordeste 0 955.7 0.3 86
2018-09-27 08:00:00 16.3 10 Nordeste 20 Nordeste 0 955.4 -0.2 84
2018-09-27 07:00:00 16.4 11 Nordeste 23 Nordeste 0 955.3 -0.5 84
2018-09-27 06:00:00 16.7 12 Nordeste 26 Nordeste 0 955.4 -0.7 82
2018-09-27 05:00:00 16.9 12 Este 24 Este 0 955.6 -0.5 83
2018-09-27 04:00:00 17 11 Este 22 Nordeste 0 955.8 -0.3 82
2018-09-27 03:00:00 17.3 12 Nordeste 21 Este 0 956.1 0.3 78
2018-09-27 02:00:00 17.7 12 Nordeste 21 Nordeste 0 956.1 0.3 75
2018-09-27 01:00:00 18.7 12 Este 27 Nordeste 0 956.1 0.7 70
2018-09-27 00:00:00 19.6 15 Este 30 Este 0 955.8 1.3 67
2018-09-26 23:00:00 20.5 14 Este 27 Este 0 955.8 2.2 66
2018-09-26 22:00:00 21.7 13 Nordeste 26 Nordeste 0 955.4 2.3 62
2018-09-26 21:00:00 22.9 12 Este 32 Este 0 954.5 1.6 58
2018-09-26 20:00:00 24.7 18 Este 35 Este 0 953.6 0.7 51
2018-09-26 19:00:00 26 18 Este 31 Este 0 953.1 0.5 47
2018-09-26 18:00:00 26.9 16 Este 35 Este 0 952.9 0 42
2018-09-26 17:00:00 27 19 Este 41 Este 0 952.9 -0.7 44
2018-09-26 16:00:00 28.6 21 Este 34 Sudeste 0 952.6 -1.4 42
2018-09-26 15:00:00 29.2 12 Este 25 Este 0 952.9 -1.2 43
2018-09-26 14:00:00 27.7 14 Este 24 Nordeste 0 953.6 -0.3 47
2018-09-26 13:00:00 27.3 12 Este 23 Este 0 954 0.5 51
2018-09-26 12:00:00 25 9 Nordeste 21 Nordeste 0 954.1 1.2 60
2018-09-26 11:00:00 23.2 8 Este 17 Este 0 953.9 1.9 68
2018-09-26 10:00:00 19.3 4 Este 13 Nordeste 0 953.5 2.1 83
2018-09-26 09:00:00 17.7 8 Nordeste 13 Este 0 952.9 2 89
2018-09-26 08:00:00 17.5 4 Nordeste 9 Este 0 952 1.3 89
2018-09-26 07:00:00 17.6 5 Nordeste 11 Nordeste 0 951.4 0.8 87
2018-09-26 06:00:00 18 4 Nordeste 12 Nordeste 0 950.9 0.4 84
2018-09-26 05:00:00 18.5 6 Nordeste 13 Nordeste 0 950.7 0.3 83
2018-09-26 04:00:00 19 6 Nordeste 21 Nordeste 0 950.6 0.4 80
2018-09-26 03:00:00 19.5 7 Nordeste 19 Nordeste 0 950.5 0.7 78
2018-09-26 02:00:00 20.1 8 Nordeste 20 Nordeste 0 950.4 1.2 76
2018-09-26 01:00:00 20.7 11 Nordeste 21 Nordeste 0 950.2 1.6 73
2018-09-26 00:00:00 21.8 8 Nordeste 23 Nordeste 0 949.8 2.1 67
2018-09-25 23:00:00 23.8 12 Nordeste 28 Nordeste 0 949.2 1.9 60
2018-09-25 22:00:00 26.8 11 Nordeste 23 Nordeste 0 948.6 1.4 46
2018-09-25 21:00:00 27.9 6 Norte 11 Noroeste 0 947.7 0.4 30
2018-09-25 20:00:00 29.4 0 Calma 6 Norte 0 947.3 -0.2 29
2018-09-25 19:00:00 31.1 3 Norte 15 Norte 0 947.2 -0.7 26
2018-09-25 18:00:00 31.8 4 Nordeste 21 Norte 0 947.3 -1.3 25
2018-09-25 17:00:00 32.9 5 Noroeste 17 Noroeste 0 947.5 -2.1 23
2018-09-25 16:00:00 33.1 5 Sur 17 Noroeste 0 947.9 -2.2 26
2018-09-25 15:00:00 32.3 3 Noroeste 9 Sudeste 0 948.6 -1.8 30
2018-09-25 14:00:00 30.9 4 Sudeste 10 Sudoeste 0 949.6 -0.8 35
2018-09-25 13:00:00 28.8 4 Nordeste 13 Nordeste 0 950.1 0 40
2018-09-25 12:00:00 25.7 4 Norte 13 Nordeste 0 950.4 0.6 52
2018-09-25 11:00:00 23.1 8 Nordeste 16 Este 0 950.4 1.2 59
2018-09-25 10:00:00 19.6 9 Este 16 Este 0 950.1 1.3 75
2018-09-25 09:00:00 17.6 5 Este 10 Este 0 949.8 1.3 81
2018-09-25 08:00:00 17.7 5 Este 12 Este 0 949.2 0.7 79
2018-09-25 07:00:00 18.2 7 Este 13 Este 0 948.8 0 77
2018-09-25 06:00:00 18.7 6 Este 14 Nordeste 0 948.5 -0.3 72
2018-09-25 05:00:00 19.5 6 Nordeste 8 Nordeste 0 948.5 -0.3 65
2018-09-25 04:00:00 20.2 3 Sudeste 7 Este 0 948.8 0 59
2018-09-25 03:00:00 21 6 Nordeste 13 Nordeste 0 948.8 -0.1 48
2018-09-25 02:00:00 21.6 6 Nordeste 17 Este 0 948.8 0 42
2018-09-25 01:00:00 21.8 4 Sudeste -- -- 0 948.8 0.5 45
2018-09-25 00:00:00 22.9 3 Nordeste 5 Nordeste 0 948.9 1.1 42
2018-09-24 23:00:00 24.4 3 Norte 9 Nordeste 0 948.8 1.1 38
2018-09-24 22:00:00 25.8 4 Nordeste 9 Norte 0 948.3 0.7 34
2018-09-24 21:00:00 27.7 4 Este 6 Este 0 947.8 0.1 32
2018-09-24 20:00:00 30.1 5 Este 13 Este 0 947.7 -0.5 27
2018-09-24 19:00:00 31.6 6 Sudeste 16 Nordeste 0 947.6 -1.2 25
2018-09-24 18:00:00 32.5 3 Oeste 17 Nordeste 0 947.7 -1.9 22
2018-09-24 17:00:00 33.3 6 Norte 17 Nordeste 0 948.2 -2.3 22
2018-09-24 16:00:00 33.6 8 Este 17 Este 0 948.8 -2.2 23
2018-09-24 15:00:00 32.9 5 Nordeste 20 Este 0 949.6 -1.6 26
2018-09-24 14:00:00 31 10 Este 23 Nordeste 0 950.5 -0.7 32
2018-09-24 13:00:00 29.3 12 Este 23 Nordeste 0 951 0.3 36
2018-09-24 12:00:00 27 13 Este 22 Nordeste 0 951.2 0.9 39
2018-09-24 11:00:00 24.4 14 Nordeste 23 Nordeste 0 951.2 1.3 43
2018-09-24 10:00:00 20.9 9 Este 13 Este 0 950.7 1.2 48
2018-09-24 09:00:00 18.3 6 Este 12 Este 0 950.3 0.9 56
2018-09-24 08:00:00 17.5 3 Nordeste 5 Nordeste 0 949.9 0.4 64
2018-09-24 07:00:00 18.4 3 Este 6 Sudeste 0 949.5 -0.2 57
2018-09-24 06:00:00 19.3 4 Sudeste 8 Este 0 949.4 -0.8 56
2018-09-24 05:00:00 20.2 3 Noroeste 9 Norte 0 949.5 -0.6 56
2018-09-24 04:00:00 21 5 Noroeste 10 Norte 0 949.7 -0.3 50
2018-09-24 03:00:00 21.7 5 Nordeste 14 Nordeste 0 950.2 0.2 47
2018-09-24 02:00:00 22 6 Sudeste 15 Sur 0 950.1 0.2 48
2018-09-24 01:00:00 22.8 3 Nordeste 6 Este 0 950 0.4 47
2018-09-24 00:00:00 23.7 4 Nordeste 9 Nordeste 0 950 0.8 44
2018-09-23 23:00:00 24.9 4 Nordeste 10 Norte 0 949.9 0.9 38
2018-09-23 22:00:00 26.1 2 Nordeste 6 Este 0 949.6 0.6 34
2018-09-23 21:00:00 28.1 4 Este 7 Este 0 949.2 0.3 31
2018-09-23 20:00:00 30.4 5 Este 11 Nordeste 0 949 -0.2 27
2018-09-23 19:00:00 32 5 Nordeste 18 Este 0 949 -0.7 24
2018-09-23 18:00:00 32.8 7 Nordeste 19 Este 0 948.9 -1.5 24
2018-09-23 17:00:00 33.6 9 Este 21 Nordeste 0 949.2 -1.9 23
2018-09-23 16:00:00 34.6 5 Sudeste 17 Sudeste 0 949.7 -1.9 20
2018-09-23 15:00:00 33.8 5 Nordeste 17 Este 0 950.4 -1.7 23
2018-09-23 14:00:00 33.6 5 Sudeste 11 Sudeste 0 951.1 -1.1 26
2018-09-23 13:00:00 31.2 5 Este 10 Este 0 951.6 -0.2 32
2018-09-23 12:00:00 27.9 0 Calma 6 Este 0 952.1 0.7 37
2018-09-23 11:00:00 24.3 2 Este 5 Nordeste 0 952.2 1.2 46
2018-09-23 10:00:00 19.7 3 Nordeste 8 Nordeste 0 951.8 1.2 58
2018-09-23 09:00:00 18 3 Norte 9 Norte 0 951.4 0.9 65
2018-09-23 08:00:00 18.1 4 Norte 9 Nordeste 0 951 0.4 66
2018-09-23 07:00:00 18.5 2 Este 4 Este 0 950.6 -0.1 65
2018-09-23 06:00:00 19.1 3 Este 5 Sudeste 0 950.5 -0.4 62
2018-09-23 05:00:00 19.6 4 Nordeste 7 Nordeste 0 950.6 -0.5 60
2018-09-23 04:00:00 20.2 2 Nordeste 8 Nordeste 0 950.7 -0.4 57
2018-09-23 03:00:00 21 2 Norte 4 Norte 0 950.9 -0.1 57
2018-09-23 02:00:00 22 2 Este 13 Sudeste 0 951.1 0.3 53
2018-09-23 01:00:00 22.7 4 Este 13 Este 0 951.1 0.7 51
2018-09-23 00:00:00 23.2 4 Nordeste 8 Nordeste 0 951 0.9 45
2018-09-22 23:00:00 24.5 2 Noroeste 4 Norte 0 950.8 1 42
2018-09-22 22:00:00 25.9 2 Nordeste 6 Nordeste 0 950.4 0.8 38
2018-09-22 21:00:00 27.7 4 Nordeste 8 Nordeste 0 950.1 0.6 33
2018-09-22 20:00:00 30 6 Nordeste 12 Nordeste 0 949.8 0 29
2018-09-22 19:00:00 31.3 8 Este 18 Este 0 949.6 -0.6 26
2018-09-22 18:00:00 32.2 6 Nordeste 19 Este 0 949.5 -1.3 25
2018-09-22 17:00:00 33.2 5 Nordeste 14 Oeste 0 949.8 -1.4 24
2018-09-22 16:00:00 33.4 6 Norte 15 Nordeste 0 950.2 -1.5 25
2018-09-22 15:00:00 33 4 Nordeste 14 Este 0 950.8 -0.9 26
2018-09-22 14:00:00 32 4 Norte 13 Nordeste 0 951.2 -0.3 31
2018-09-22 13:00:00 30.4 4 Nordeste 12 Este 0 951.7 0.5 33
2018-09-22 12:00:00 27.9 5 Este 11 Este 0 951.7 1 37
2018-09-22 11:00:00 24.6 4 Este 10 Este 0 951.5 1.4 47
2018-09-22 10:00:00 20.2 5 Este 8 Este 0 951.2 1.6 58
2018-09-22 09:00:00 18.2 4 Nordeste 8 Nordeste 0 950.7 1.6 69
2018-09-22 08:00:00 18 2 Norte 6 Nordeste 0 950.1 1.3 67
2018-09-22 07:00:00 18.8 2 Este 9 Sur 0 949.6 0.7 63
2018-09-22 06:00:00 19 2 Sudeste 5 Este 0 949.1 0 60
2018-09-22 05:00:00 19.8 4 Este 5 Noroeste 0 948.8 -0.2 54
2018-09-22 04:00:00 20.4 0 Calma 3 Oeste 0 948.9 0.1 54
2018-09-22 03:00:00 21.4 0 Calma 4 Sudoeste 0 949.1 0.4 50
2018-09-22 02:00:00 22.8 3 Oeste 5 Sudoeste 0 949 0.6 47
2018-09-22 01:00:00 24.5 0 Calma 13 Noroeste 0 948.8 1 40
2018-09-22 00:00:00 26.1 5 Noroeste 12 Oeste 0 948.7 1.4 36
2018-09-21 23:00:00 26.4 8 Noroeste 18 Noroeste 0 948.4 1.6 35
2018-09-21 22:00:00 25.9 0 Calma 4 Norte 0 947.8 1.5 42
2018-09-21 21:00:00 27.5 2 Norte 8 Nordeste 0 947.3 1 38
2018-09-21 20:00:00 29.3 5 Nordeste 13 Este 0 946.8 0.4 33
2018-09-21 19:00:00 30.7 8 Este 14 Este 0 946.3 -0.3 30
2018-09-21 18:00:00 30.9 6 Nordeste 14 Nordeste 0 946.3 -0.9 30
2018-09-21 17:00:00 31 4 Noroeste 13 Noroeste 0 946.4 -1.4 29
2018-09-21 16:00:00 31.8 6 Norte 17 Norte 0 946.6 -1.6 27
2018-09-21 15:00:00 33.2 5 Sur 13 Sudoeste 0 947.2 -1.3 26
2018-09-21 14:00:00 31.4 5 Nordeste 18 Noroeste 0 947.8 -0.6 32
2018-09-21 13:00:00 30.3 4 Sudeste 10 Sur 0 948.2 0.5 35
2018-09-21 12:00:00 28 5 Noroeste 10 Noroeste 0 948.5 1 44
2018-09-21 11:00:00 25 3 Noroeste 7 Noroeste 0 948.4 1.3 50
2018-09-21 10:00:00 21 0 Calma 6 Norte 0 947.7 1.1 61
2018-09-21 09:00:00 18 4 Sudoeste 7 Nordeste 0 947.5 1.3 71
2018-09-21 08:00:00 17.9 0 Calma 5 Oeste 0 947.1 0.6 67
2018-09-21 07:00:00 18.4 0 Calma 7 Sudoeste 0 946.6 0.2 65
2018-09-21 06:00:00 19.2 3 Sudoeste 9 Sudoeste 0 946.2 -0.5 62
2018-09-21 05:00:00 19 3 Sudoeste 5 Sudeste 0 946.5 -0.2 61
2018-09-21 04:00:00 19.9 0 Calma 5 Sudoeste 0 946.4 -0.4 59
2018-09-21 03:00:00 21 0 Calma 7 Sudoeste 0 946.7 0 56
2018-09-21 02:00:00 21.6 3 Sudoeste 8 Sudoeste 0 946.7 0 51
2018-09-21 01:00:00 22.5 4 Sur 12 Sudeste 0 946.8 0.2 49
2018-09-21 00:00:00 23.8 3 Oeste 10 Sudoeste 0 946.7 0.5 47
2018-09-20 23:00:00 24.7 6 Oeste 10 Oeste 0 946.7 0.8 42
2018-09-20 22:00:00 26 7 Oeste 18 Sudoeste 0 946.6 0.7 39
2018-09-20 21:00:00 27.5 8 Sudoeste 18 Sudoeste 0 946.2 0.4 36
2018-09-20 20:00:00 28.4 4 Oeste 8 Sur 0 945.9 -0.4 33
2018-09-20 19:00:00 29.5 4 Sur 14 Sur 0 945.9 -0.9 31
2018-09-20 18:00:00 30.8 6 Sur 22 Sur 0 945.8 -1.7 29
2018-09-20 17:00:00 31 6 Sudeste 22 Sur 0 946.3 -2 30
2018-09-20 16:00:00 31.8 6 Este 23 Este 0 946.8 -2.2 26
2018-09-20 15:00:00 32.1 3 Este 17 Sudeste 0 947.5 -1.8 30
2018-09-20 14:00:00 31 8 Este 16 Este 0 948.3 -1.1 33
2018-09-20 13:00:00 29.1 4 Oeste 9 Este 0 949 -0.3 40
2018-09-20 12:00:00 26.8 3 Este 7 Norte 0 949.3 0.1 47
2018-09-20 11:00:00 22.7 3 Sudeste 6 Nordeste 0 949.4 0.7 60
2018-09-20 10:00:00 18.2 3 Nordeste 8 Nordeste 0 949.3 0.8 76
2018-09-20 09:00:00 16.9 3 Nordeste 9 Nordeste 0 949.2 0.7 81
2018-09-20 08:00:00 16.5 0 Calma 9 Norte 0 948.7 0.2 79
2018-09-20 07:00:00 17.3 2 Norte 7 Nordeste 0 948.5 0 78
2018-09-20 06:00:00 17.8 2 Norte 6 Nordeste 0 948.5 -0.2 77
2018-09-20 05:00:00 18.3 0 Calma 11 Nordeste 0 948.5 -0.4 73
2018-09-20 04:00:00 19 0 Calma 4 Norte 0 948.5 -0.5 71
2018-09-20 03:00:00 19.7 2 Noroeste 6 Este 0 948.7 -0.3 68
2018-09-20 02:00:00 20.6 3 Norte 6 Nordeste 0 948.9 -0.1 62
2018-09-20 01:00:00 21.3 0 Calma 8 Nordeste 0 949 0.3 57
2018-09-20 00:00:00 22.2 4 Nordeste 8 Nordeste 0 949 1 54